sensor_id;sensor_type;location;lat;lon;timestamp;temperature;humidity
33994;DHT22;20673;48.980;8.138;2022-08-03T00:00:55;18.10;99.90
33994;DHT22;20673;48.980;8.138;2022-08-03T00:03:21;17.90;99.90
33994;DHT22;20673;48.980;8.138;2022-08-03T00:05:47;17.80;99.90
33994;DHT22;20673;48.980;8.138;2022-08-03T00:08:14;17.80;99.90
33994;DHT22;20673;48.980;8.138;2022-08-03T00:10:40;17.80;99.90
33994;DHT22;20673;48.980;8.138;2022-08-03T00:13:06;17.70;99.90
33994;DHT22;20673;48.980;8.138;2022-08-03T00:15:33;17.70;99.90
33994;DHT22;20673;48.980;8.138;2022-08-03T00:17:59;17.70;99.90
33994;DHT22;20673;48.980;8.138;2022-08-03T00:20:25;17.70;99.90
33994;DHT22;20673;48.980;8.138;2022-08-03T00:22:51;17.70;99.90
33994;DHT22;20673;48.980;8.138;2022-08-03T00:25:18;17.80;99.90
33994;DHT22;20673;48.980;8.138;2022-08-03T00:27:44;17.80;99.90
33994;DHT22;20673;48.980;8.138;2022-08-03T00:30:10;17.70;99.90
33994;DHT22;20673;48.980;8.138;2022-08-03T00:32:37;17.80;99.90
33994;DHT22;20673;48.980;8.138;2022-08-03T00:35:04;17.70;99.90
33994;DHT22;20673;48.980;8.138;2022-08-03T00:37:30;17.60;99.90
33994;DHT22;20673;48.980;8.138;2022-08-03T00:39:57;17.60;99.90
33994;DHT22;20673;48.980;8.138;2022-08-03T00:42:23;17.50;99.90
33994;DHT22;20673;48.980;8.138;2022-08-03T00:44:49;17.40;99.90
33994;DHT22;20673;48.980;8.138;2022-08-03T00:47:15;17.40;99.90
33994;DHT22;20673;48.980;8.138;2022-08-03T00:49:41;17.40;99.90
33994;DHT22;20673;48.980;8.138;2022-08-03T00:52:09;17.30;99.90
33994;DHT22;20673;48.980;8.138;2022-08-03T00:54:39;17.30;99.90
33994;DHT22;20673;48.980;8.138;2022-08-03T00:57:06;17.30;99.90
33994;DHT22;20673;48.980;8.138;2022-08-03T00:59:33;17.30;99.90
33994;DHT22;20673;48.980;8.138;2022-08-03T01:01:59;17.30;99.90
33994;DHT22;20673;48.980;8.138;2022-08-03T01:04:26;17.30;99.90
33994;DHT22;20673;48.980;8.138;2022-08-03T01:12:47;17.30;99.90
33994;DHT22;20673;48.980;8.138;2022-08-03T01:15:29;17.40;99.90
33994;DHT22;20673;48.980;8.138;2022-08-03T01:20:55;17.30;99.90
33994;DHT22;20673;48.980;8.138;2022-08-03T01:23:45;17.10;99.90
33994;DHT22;20673;48.980;8.138;2022-08-03T01:29:51;17.10;99.90
33994;DHT22;20673;48.980;8.138;2022-08-03T01:32:51;17.10;99.90
33994;DHT22;20673;48.980;8.138;2022-08-03T01:35:05;17.00;99.90
33994;DHT22;20673;48.980;8.138;2022-08-03T01:37:42;16.80;99.90
33994;DHT22;20673;48.980;8.138;2022-08-03T01:40:18;16.80;99.90
33994;DHT22;20673;48.980;8.138;2022-08-03T01:42:46;16.80;99.90
33994;DHT22;20673;48.980;8.138;2022-08-03T01:45:15;16.90;99.90
33994;DHT22;20673;48.980;8.138;2022-08-03T01:47:45;16.80;99.90
33994;DHT22;20673;48.980;8.138;2022-08-03T01:50:14;16.80;99.90
33994;DHT22;20673;48.980;8.138;2022-08-03T01:52:44;16.80;99.90
33994;DHT22;20673;48.980;8.138;2022-08-03T01:55:12;16.80;99.90
33994;DHT22;20673;48.980;8.138;2022-08-03T01:57:42;16.80;99.90
33994;DHT22;20673;48.980;8.138;2022-08-03T02:00:10;16.70;99.90
33994;DHT22;20673;48.980;8.138;2022-08-03T02:02:37;16.60;99.90
33994;DHT22;20673;48.980;8.138;2022-08-03T02:05:07;16.60;99.90
33994;DHT22;20673;48.980;8.138;2022-08-03T02:07:36;16.60;99.90
33994;DHT22;20673;48.980;8.138;2022-08-03T02:10:08;16.60;99.90
33994;DHT22;20673;48.980;8.138;2022-08-03T02:12:38;16.60;99.90
33994;DHT22;20673;48.980;8.138;2022-08-03T02:15:08;16.50;99.90
33994;DHT22;20673;48.980;8.138;2022-08-03T02:17:36;16.50;99.90
33994;DHT22;20673;48.980;8.138;2022-08-03T02:20:04;16.50;99.90
33994;DHT22;20673;48.980;8.138;2022-08-03T02:22:32;16.50;99.90
33994;DHT22;20673;48.980;8.138;2022-08-03T02:24:59;16.50;99.90
33994;DHT22;20673;48.980;8.138;2022-08-03T02:27:26;16.60;99.90
33994;DHT22;20673;48.980;8.138;2022-08-03T02:30:02;16.70;99.90
33994;DHT22;20673;48.980;8.138;2022-08-03T02:32:33;16.70;99.90
33994;DHT22;20673;48.980;8.138;2022-08-03T02:35:03;16.60;99.90
33994;DHT22;20673;48.980;8.138;2022-08-03T02:37:34;16.50;99.90
33994;DHT22;20673;48.980;8.138;2022-08-03T02:40:05;16.40;99.90
33994;DHT22;20673;48.980;8.138;2022-08-03T02:42:35;16.40;99.90
33994;DHT22;20673;48.980;8.138;2022-08-03T02:45:05;16.40;99.90
33994;DHT22;20673;48.980;8.138;2022-08-03T02:47:38;16.40;99.90
33994;DHT22;20673;48.980;8.138;2022-08-03T02:50:08;16.50;99.90
33994;DHT22;20673;48.980;8.138;2022-08-03T02:52:37;16.40;99.90
33994;DHT22;20673;48.980;8.138;2022-08-03T02:55:05;16.40;99.90
33994;DHT22;20673;48.980;8.138;2022-08-03T02:57:34;16.30;99.90
33994;DHT22;20673;48.980;8.138;2022-08-03T03:00:04;16.30;99.90
33994;DHT22;20673;48.980;8.138;2022-08-03T03:02:32;16.30;99.90
33994;DHT22;20673;48.980;8.138;2022-08-03T03:05:00;16.20;99.90
33994;DHT22;20673;48.980;8.138;2022-08-03T03:07:27;16.30;99.90
33994;DHT22;20673;48.980;8.138;2022-08-03T03:09:55;16.40;99.90
33994;DHT22;20673;48.980;8.138;2022-08-03T03:12:22;16.30;99.90
33994;DHT22;20673;48.980;8.138;2022-08-03T03:14:50;16.20;99.90
33994;DHT22;20673;48.980;8.138;2022-08-03T03:17:17;16.20;99.90
33994;DHT22;20673;48.980;8.138;2022-08-03T03:19:46;16.10;99.90
33994;DHT22;20673;48.980;8.138;2022-08-03T03:22:15;16.10;99.90
33994;DHT22;20673;48.980;8.138;2022-08-03T03:24:43;16.20;99.90
33994;DHT22;20673;48.980;8.138;2022-08-03T03:27:13;16.20;99.90
33994;DHT22;20673;48.980;8.138;2022-08-03T03:29:40;16.20;99.90
33994;DHT22;20673;48.980;8.138;2022-08-03T03:32:07;16.00;99.90
33994;DHT22;20673;48.980;8.138;2022-08-03T03:34:33;15.90;99.90
33994;DHT22;20673;48.980;8.138;2022-08-03T03:37:00;16.00;99.90
33994;DHT22;20673;48.980;8.138;2022-08-03T03:39:26;16.00;99.90
33994;DHT22;20673;48.980;8.138;2022-08-03T03:41:53;16.00;99.90
33994;DHT22;20673;48.980;8.138;2022-08-03T03:44:19;16.00;99.90
33994;DHT22;20673;48.980;8.138;2022-08-03T03:46:46;16.00;99.90
33994;DHT22;20673;48.980;8.138;2022-08-03T03:49:12;15.90;99.90
33994;DHT22;20673;48.980;8.138;2022-08-03T03:51:39;16.00;99.90
33994;DHT22;20673;48.980;8.138;2022-08-03T03:54:05;16.00;99.90
33994;DHT22;20673;48.980;8.138;2022-08-03T03:56:32;16.00;99.90
33994;DHT22;20673;48.980;8.138;2022-08-03T03:58:58;15.90;99.90
33994;DHT22;20673;48.980;8.138;2022-08-03T04:01:25;15.80;99.90
33994;DHT22;20673;48.980;8.138;2022-08-03T04:03:52;15.70;99.90
33994;DHT22;20673;48.980;8.138;2022-08-03T04:06:18;15.70;99.90
33994;DHT22;20673;48.980;8.138;2022-08-03T04:09:06;15.60;99.90
33994;DHT22;20673;48.980;8.138;2022-08-03T04:11:53;15.60;99.90
33994;DHT22;20673;48.980;8.138;2022-08-03T04:14:31;15.70;99.90
33994;DHT22;20673;48.980;8.138;2022-08-03T04:17:00;15.70;99.90
33994;DHT22;20673;48.980;8.138;2022-08-03T04:19:49;15.80;99.90
33994;DHT22;20673;48.980;8.138;2022-08-03T04:22:22;15.70;99.90
33994;DHT22;20673;48.980;8.138;2022-08-03T04:24:57;15.70;99.90
33994;DHT22;20673;48.980;8.138;2022-08-03T04:27:33;15.60;99.90
33994;DHT22;20673;48.980;8.138;2022-08-03T04:30:04;15.60;99.90
33994;DHT22;20673;48.980;8.138;2022-08-03T04:32:31;15.70;99.90
33994;DHT22;20673;48.980;8.138;2022-08-03T04:34:58;15.70;99.90
33994;DHT22;20673;48.980;8.138;2022-08-03T04:37:42;15.60;99.90
33994;DHT22;20673;48.980;8.138;2022-08-03T04:40:14;15.70;99.90
33994;DHT22;20673;48.980;8.138;2022-08-03T04:42:43;15.70;99.90
33994;DHT22;20673;48.980;8.138;2022-08-03T04:45:12;15.70;99.90
33994;DHT22;20673;48.980;8.138;2022-08-03T04:47:40;15.80;99.90
33994;DHT22;20673;48.980;8.138;2022-08-03T04:50:07;15.90;99.90
33994;DHT22;20673;48.980;8.138;2022-08-03T04:52:35;15.90;99.90
33994;DHT22;20673;48.980;8.138;2022-08-03T04:55:01;16.00;99.90
33994;DHT22;20673;48.980;8.138;2022-08-03T04:57:28;16.10;99.90
33994;DHT22;20673;48.980;8.138;2022-08-03T04:59:54;16.10;99.90
33994;DHT22;20673;48.980;8.138;2022-08-03T05:02:21;16.20;99.90
33994;DHT22;20673;48.980;8.138;2022-08-03T05:04:48;16.20;99.90
33994;DHT22;20673;48.980;8.138;2022-08-03T05:07:16;16.30;99.90
33994;DHT22;20673;48.980;8.138;2022-08-03T05:09:43;16.40;99.90
33994;DHT22;20673;48.980;8.138;2022-08-03T05:12:10;16.50;99.90
33994;DHT22;20673;48.980;8.138;2022-08-03T05:14:37;16.60;99.90
33994;DHT22;20673;48.980;8.138;2022-08-03T05:17:08;16.70;99.90
33994;DHT22;20673;48.980;8.138;2022-08-03T05:19:34;16.80;99.90
33994;DHT22;20673;48.980;8.138;2022-08-03T05:22:00;16.90;99.90
33994;DHT22;20673;48.980;8.138;2022-08-03T05:24:27;17.10;99.90
33994;DHT22;20673;48.980;8.138;2022-08-03T05:26:53;17.20;99.90
33994;DHT22;20673;48.980;8.138;2022-08-03T05:29:20;17.30;99.90
33994;DHT22;20673;48.980;8.138;2022-08-03T05:31:46;17.40;99.90
33994;DHT22;20673;48.980;8.138;2022-08-03T05:34:12;17.50;99.90
33994;DHT22;20673;48.980;8.138;2022-08-03T05:36:38;17.70;99.90
33994;DHT22;20673;48.980;8.138;2022-08-03T05:39:04;17.80;99.90
33994;DHT22;20673;48.980;8.138;2022-08-03T05:41:30;17.90;99.90
33994;DHT22;20673;48.980;8.138;2022-08-03T05:43:56;18.10;99.90
33994;DHT22;20673;48.980;8.138;2022-08-03T05:46:23;18.30;99.90
33994;DHT22;20673;48.980;8.138;2022-08-03T05:48:49;18.40;99.90
33994;DHT22;20673;48.980;8.138;2022-08-03T05:51:16;18.60;99.90
33994;DHT22;20673;48.980;8.138;2022-08-03T05:53:42;18.70;99.90
33994;DHT22;20673;48.980;8.138;2022-08-03T05:56:09;18.80;99.90
33994;DHT22;20673;48.980;8.138;2022-08-03T05:58:36;19.00;99.90
33994;DHT22;20673;48.980;8.138;2022-08-03T06:01:02;19.10;99.90
33994;DHT22;20673;48.980;8.138;2022-08-03T06:03:28;19.20;99.90
33994;DHT22;20673;48.980;8.138;2022-08-03T06:05:54;19.40;99.90
33994;DHT22;20673;48.980;8.138;2022-08-03T06:08:23;19.50;99.90
33994;DHT22;20673;48.980;8.138;2022-08-03T06:10:50;19.70;99.90
33994;DHT22;20673;48.980;8.138;2022-08-03T06:13:16;19.90;99.90
33994;DHT22;20673;48.980;8.138;2022-08-03T06:15:42;20.10;99.90
33994;DHT22;20673;48.980;8.138;2022-08-03T06:18:08;20.20;99.90
33994;DHT22;20673;48.980;8.138;2022-08-03T06:20:34;20.40;99.90
33994;DHT22;20673;48.980;8.138;2022-08-03T06:23:01;20.50;99.90
33994;DHT22;20673;48.980;8.138;2022-08-03T06:25:27;20.60;99.90
33994;DHT22;20673;48.980;8.138;2022-08-03T06:27:53;20.70;99.90
33994;DHT22;20673;48.980;8.138;2022-08-03T06:30:19;20.80;99.90
33994;DHT22;20673;48.980;8.138;2022-08-03T06:32:45;21.00;99.90
33994;DHT22;20673;48.980;8.138;2022-08-03T06:35:12;21.10;99.90
33994;DHT22;20673;48.980;8.138;2022-08-03T06:37:50;21.20;99.90
33994;DHT22;20673;48.980;8.138;2022-08-03T06:40:23;21.30;99.90
33994;DHT22;20673;48.980;8.138;2022-08-03T06:42:58;21.50;99.90
33994;DHT22;20673;48.980;8.138;2022-08-03T06:45:26;21.60;99.90
33994;DHT22;20673;48.980;8.138;2022-08-03T06:48:09;21.70;99.90
33994;DHT22;20673;48.980;8.138;2022-08-03T06:50:40;21.80;99.90
33994;DHT22;20673;48.980;8.138;2022-08-03T06:53:07;22.00;99.90
33994;DHT22;20673;48.980;8.138;2022-08-03T06:55:36;22.20;99.90
33994;DHT22;20673;48.980;8.138;2022-08-03T06:58:02;22.30;99.90
33994;DHT22;20673;48.980;8.138;2022-08-03T07:00:28;22.50;99.90
33994;DHT22;20673;48.980;8.138;2022-08-03T07:02:56;22.70;99.90
33994;DHT22;20673;48.980;8.138;2022-08-03T07:05:22;22.80;99.90
33994;DHT22;20673;48.980;8.138;2022-08-03T07:07:48;22.90;99.90
33994;DHT22;20673;48.980;8.138;2022-08-03T07:10:15;22.90;99.90
33994;DHT22;20673;48.980;8.138;2022-08-03T07:12:41;23.10;99.90
33994;DHT22;20673;48.980;8.138;2022-08-03T07:15:08;23.30;99.90
33994;DHT22;20673;48.980;8.138;2022-08-03T07:17:35;23.40;99.90
33994;DHT22;20673;48.980;8.138;2022-08-03T07:20:04;23.50;99.90
33994;DHT22;20673;48.980;8.138;2022-08-03T07:22:32;23.60;99.90
33994;DHT22;20673;48.980;8.138;2022-08-03T07:24:59;23.80;99.90
33994;DHT22;20673;48.980;8.138;2022-08-03T07:27:26;23.90;99.90
33994;DHT22;20673;48.980;8.138;2022-08-03T07:29:54;24.20;99.90
33994;DHT22;20673;48.980;8.138;2022-08-03T07:32:22;24.20;99.90
33994;DHT22;20673;48.980;8.138;2022-08-03T07:34:49;24.30;99.90
33994;DHT22;20673;48.980;8.138;2022-08-03T07:37:15;24.50;99.90
33994;DHT22;20673;48.980;8.138;2022-08-03T07:39:42;24.60;99.90
33994;DHT22;20673;48.980;8.138;2022-08-03T07:42:09;24.70;99.90
33994;DHT22;20673;48.980;8.138;2022-08-03T07:44:35;24.80;99.90
33994;DHT22;20673;48.980;8.138;2022-08-03T07:47:01;25.00;99.90
33994;DHT22;20673;48.980;8.138;2022-08-03T07:49:27;24.80;99.90
33994;DHT22;20673;48.980;8.138;2022-08-03T07:51:53;25.10;99.90
33994;DHT22;20673;48.980;8.138;2022-08-03T07:54:38;25.40;99.90
33994;DHT22;20673;48.980;8.138;2022-08-03T07:57:04;25.70;99.90
33994;DHT22;20673;48.980;8.138;2022-08-03T07:59:30;25.80;99.90
33994;DHT22;20673;48.980;8.138;2022-08-03T08:01:57;25.80;99.90
33994;DHT22;20673;48.980;8.138;2022-08-03T08:04:23;26.00;99.90
33994;DHT22;20673;48.980;8.138;2022-08-03T08:06:49;26.10;99.90
33994;DHT22;20673;48.980;8.138;2022-08-03T08:09:15;26.30;99.90
33994;DHT22;20673;48.980;8.138;2022-08-03T08:11:41;26.50;99.90
33994;DHT22;20673;48.980;8.138;2022-08-03T08:14:07;26.60;99.90
33994;DHT22;20673;48.980;8.138;2022-08-03T08:16:34;26.50;99.90
33994;DHT22;20673;48.980;8.138;2022-08-03T08:19:00;26.60;99.90
33994;DHT22;20673;48.980;8.138;2022-08-03T08:21:27;26.80;99.90
33994;DHT22;20673;48.980;8.138;2022-08-03T08:23:54;27.00;99.90
33994;DHT22;20673;48.980;8.138;2022-08-03T08:26:20;27.20;99.90
33994;DHT22;20673;48.980;8.138;2022-08-03T08:28:46;27.30;99.90
33994;DHT22;20673;48.980;8.138;2022-08-03T08:31:12;27.50;99.90
33994;DHT22;20673;48.980;8.138;2022-08-03T08:33:38;27.70;99.90
33994;DHT22;20673;48.980;8.138;2022-08-03T08:36:05;27.70;99.90
33994;DHT22;20673;48.980;8.138;2022-08-03T08:38:33;27.80;99.90
33994;DHT22;20673;48.980;8.138;2022-08-03T08:41:00;28.10;99.90
33994;DHT22;20673;48.980;8.138;2022-08-03T08:43:27;28.30;99.90
33994;DHT22;20673;48.980;8.138;2022-08-03T08:45:53;28.50;99.90
33994;DHT22;20673;48.980;8.138;2022-08-03T08:48:25;28.70;99.90
33994;DHT22;20673;48.980;8.138;2022-08-03T08:50:54;28.90;99.90
33994;DHT22;20673;48.980;8.138;2022-08-03T08:53:27;29.30;99.90
33994;DHT22;20673;48.980;8.138;2022-08-03T08:55:59;29.40;99.90
33994;DHT22;20673;48.980;8.138;2022-08-03T08:58:33;29.40;99.90
33994;DHT22;20673;48.980;8.138;2022-08-03T09:01:03;29.60;99.90
33994;DHT22;20673;48.980;8.138;2022-08-03T09:03:34;29.90;99.90
33994;DHT22;20673;48.980;8.138;2022-08-03T09:06:01;30.00;99.90
33994;DHT22;20673;48.980;8.138;2022-08-03T09:08:31;30.10;99.90
33994;DHT22;20673;48.980;8.138;2022-08-03T09:10:57;30.20;99.90
33994;DHT22;20673;48.980;8.138;2022-08-03T09:13:24;30.20;99.90
33994;DHT22;20673;48.980;8.138;2022-08-03T09:18:41;30.40;99.90
33994;DHT22;20673;48.980;8.138;2022-08-03T09:23:57;30.80;99.90
33994;DHT22;20673;48.980;8.138;2022-08-03T09:26:26;30.90;99.90
33994;DHT22;20673;48.980;8.138;2022-08-03T09:28:59;30.80;99.90
33994;DHT22;20673;48.980;8.138;2022-08-03T09:31:35;30.80;99.90
33994;DHT22;20673;48.980;8.138;2022-08-03T09:34:07;31.00;99.90
33994;DHT22;20673;48.980;8.138;2022-08-03T09:39:10;31.60;99.90
33994;DHT22;20673;48.980;8.138;2022-08-03T09:41:45;31.80;99.90
33994;DHT22;20673;48.980;8.138;2022-08-03T09:44:13;32.20;99.90
33994;DHT22;20673;48.980;8.138;2022-08-03T09:46:50;32.50;99.90
33994;DHT22;20673;48.980;8.138;2022-08-03T09:49:18;32.50;99.90
33994;DHT22;20673;48.980;8.138;2022-08-03T09:51:44;33.00;99.90
33994;DHT22;20673;48.980;8.138;2022-08-03T09:54:11;33.20;99.90
33994;DHT22;20673;48.980;8.138;2022-08-03T09:56:40;33.30;99.90
33994;DHT22;20673;48.980;8.138;2022-08-03T09:59:10;33.40;99.90
33994;DHT22;20673;48.980;8.138;2022-08-03T10:01:38;33.50;99.90
33994;DHT22;20673;48.980;8.138;2022-08-03T10:04:12;33.80;99.90
33994;DHT22;20673;48.980;8.138;2022-08-03T10:06:39;33.90;99.90
33994;DHT22;20673;48.980;8.138;2022-08-03T10:11:42;33.90;99.90
33994;DHT22;20673;48.980;8.138;2022-08-03T10:14:10;34.20;99.90
33994;DHT22;20673;48.980;8.138;2022-08-03T10:16:45;34.10;99.90
33994;DHT22;20673;48.980;8.138;2022-08-03T10:19:12;34.20;99.90
33994;DHT22;20673;48.980;8.138;2022-08-03T10:21:45;34.40;99.90
33994;DHT22;20673;48.980;8.138;2022-08-03T10:24:19;34.50;99.90
33994;DHT22;20673;48.980;8.138;2022-08-03T10:26:49;35.00;99.90
33994;DHT22;20673;48.980;8.138;2022-08-03T10:29:23;35.30;99.90
33994;DHT22;20673;48.980;8.138;2022-08-03T10:31:55;35.20;99.90
33994;DHT22;20673;48.980;8.138;2022-08-03T10:34:25;35.30;99.90
33994;DHT22;20673;48.980;8.138;2022-08-03T10:36:55;35.40;99.90
33994;DHT22;20673;48.980;8.138;2022-08-03T10:39:28;35.10;99.80
33994;DHT22;20673;48.980;8.138;2022-08-03T10:41:55;35.10;99.90
33994;DHT22;20673;48.980;8.138;2022-08-03T10:44:24;35.20;99.50
33994;DHT22;20673;48.980;8.138;2022-08-03T10:46:53;35.20;99.10
33994;DHT22;20673;48.980;8.138;2022-08-03T10:49:20;35.40;99.90
33994;DHT22;20673;48.980;8.138;2022-08-03T10:51:48;35.50;99.90
33994;DHT22;20673;48.980;8.138;2022-08-03T10:57:47;35.60;98.20
33994;DHT22;20673;48.980;8.138;2022-08-03T11:00:19;35.40;98.80
33994;DHT22;20673;48.980;8.138;2022-08-03T11:03:09;35.30;97.70
33994;DHT22;20673;48.980;8.138;2022-08-03T11:05:47;35.20;97.60
33994;DHT22;20673;48.980;8.138;2022-08-03T11:08:23;35.00;97.10
33994;DHT22;20673;48.980;8.138;2022-08-03T11:16:33;35.00;96.90
33994;DHT22;20673;48.980;8.138;2022-08-03T11:19:06;35.10;96.00
33994;DHT22;20673;48.980;8.138;2022-08-03T11:46:05;35.60;95.40
33994;DHT22;20673;48.980;8.138;2022-08-03T11:48:38;35.90;94.10
33994;DHT22;20673;48.980;8.138;2022-08-03T11:54:03;35.80;93.90
33994;DHT22;20673;48.980;8.138;2022-08-03T11:56:28;35.70;94.20
33994;DHT22;20673;48.980;8.138;2022-08-03T11:59:15;35.50;94.50
33994;DHT22;20673;48.980;8.138;2022-08-03T12:01:42;35.50;94.30
33994;DHT22;20673;48.980;8.138;2022-08-03T12:04:10;35.30;93.70
33994;DHT22;20673;48.980;8.138;2022-08-03T12:06:36;35.40;94.00
33994;DHT22;20673;48.980;8.138;2022-08-03T12:09:20;35.50;94.10
33994;DHT22;20673;48.980;8.138;2022-08-03T12:11:48;35.60;93.40
33994;DHT22;20673;48.980;8.138;2022-08-03T12:14:20;35.90;94.20
33994;DHT22;20673;48.980;8.138;2022-08-03T12:16:47;36.10;93.50
33994;DHT22;20673;48.980;8.138;2022-08-03T12:19:14;36.20;93.30
33994;DHT22;20673;48.980;8.138;2022-08-03T12:21:50;36.10;93.20
33994;DHT22;20673;48.980;8.138;2022-08-03T12:24:16;36.20;93.50
33994;DHT22;20673;48.980;8.138;2022-08-03T12:26:47;36.30;93.10
33994;DHT22;20673;48.980;8.138;2022-08-03T12:29:19;36.30;93.20
33994;DHT22;20673;48.980;8.138;2022-08-03T12:31:46;36.50;92.60
33994;DHT22;20673;48.980;8.138;2022-08-03T12:34:12;36.60;92.30
33994;DHT22;20673;48.980;8.138;2022-08-03T12:36:51;36.50;93.10
33994;DHT22;20673;48.980;8.138;2022-08-03T12:39:24;36.70;91.90
33994;DHT22;20673;48.980;8.138;2022-08-03T12:41:53;37.00;92.40
33994;DHT22;20673;48.980;8.138;2022-08-03T12:44:31;37.30;92.20
33994;DHT22;20673;48.980;8.138;2022-08-03T12:47:00;37.40;91.30
33994;DHT22;20673;48.980;8.138;2022-08-03T12:49:27;37.20;91.10
33994;DHT22;20673;48.980;8.138;2022-08-03T12:51:57;36.70;91.50
33994;DHT22;20673;48.980;8.138;2022-08-03T12:54:27;36.70;91.60
33994;DHT22;20673;48.980;8.138;2022-08-03T12:59:36;36.60;91.80
33994;DHT22;20673;48.980;8.138;2022-08-03T13:02:18;36.50;91.60
33994;DHT22;20673;48.980;8.138;2022-08-03T13:04:48;36.50;91.80
33994;DHT22;20673;48.980;8.138;2022-08-03T13:07:16;37.00;90.90
33994;DHT22;20673;48.980;8.138;2022-08-03T13:09:48;37.20;90.60
33994;DHT22;20673;48.980;8.138;2022-08-03T13:12:27;37.00;90.40
33994;DHT22;20673;48.980;8.138;2022-08-03T13:14:56;37.20;91.10
33994;DHT22;20673;48.980;8.138;2022-08-03T13:17:24;37.40;90.60
33994;DHT22;20673;48.980;8.138;2022-08-03T13:19:51;37.60;89.20
33994;DHT22;20673;48.980;8.138;2022-08-03T13:22:24;38.00;91.30
33994;DHT22;20673;48.980;8.138;2022-08-03T13:24:53;38.00;89.10
33994;DHT22;20673;48.980;8.138;2022-08-03T13:27:23;38.10;90.70
33994;DHT22;20673;48.980;8.138;2022-08-03T13:29:51;38.50;89.50
33994;DHT22;20673;48.980;8.138;2022-08-03T13:32:18;38.80;90.40
33994;DHT22;20673;48.980;8.138;2022-08-03T13:34:45;38.90;87.40
33994;DHT22;20673;48.980;8.138;2022-08-03T13:37:11;38.80;87.00
33994;DHT22;20673;48.980;8.138;2022-08-03T13:39:38;39.10;86.60
33994;DHT22;20673;48.980;8.138;2022-08-03T13:42:06;39.10;88.50
33994;DHT22;20673;48.980;8.138;2022-08-03T13:44:33;38.90;83.90
33994;DHT22;20673;48.980;8.138;2022-08-03T13:47:02;38.60;85.10
33994;DHT22;20673;48.980;8.138;2022-08-03T13:49:28;38.30;85.50
33994;DHT22;20673;48.980;8.138;2022-08-03T13:51:56;38.20;85.20
33994;DHT22;20673;48.980;8.138;2022-08-03T13:54:22;38.00;85.10
33994;DHT22;20673;48.980;8.138;2022-08-03T13:56:49;37.90;86.20
33994;DHT22;20673;48.980;8.138;2022-08-03T13:59:19;37.80;84.80
33994;DHT22;20673;48.980;8.138;2022-08-03T14:01:48;38.00;87.90
33994;DHT22;20673;48.980;8.138;2022-08-03T14:04:15;38.20;83.60
33994;DHT22;20673;48.980;8.138;2022-08-03T14:06:42;38.20;84.30
33994;DHT22;20673;48.980;8.138;2022-08-03T14:09:15;38.20;83.00
33994;DHT22;20673;48.980;8.138;2022-08-03T14:11:43;38.20;84.50
33994;DHT22;20673;48.980;8.138;2022-08-03T14:14:10;38.10;86.40
33994;DHT22;20673;48.980;8.138;2022-08-03T14:16:37;38.10;86.90
33994;DHT22;20673;48.980;8.138;2022-08-03T14:19:04;38.30;83.90
33994;DHT22;20673;48.980;8.138;2022-08-03T14:21:32;38.40;84.40
33994;DHT22;20673;48.980;8.138;2022-08-03T14:23:59;38.40;83.00
33994;DHT22;20673;48.980;8.138;2022-08-03T14:26:25;38.40;82.90
33994;DHT22;20673;48.980;8.138;2022-08-03T14:28:51;38.40;82.60
33994;DHT22;20673;48.980;8.138;2022-08-03T14:31:18;38.20;82.40
33994;DHT22;20673;48.980;8.138;2022-08-03T14:33:44;38.40;84.60
33994;DHT22;20673;48.980;8.138;2022-08-03T14:36:10;38.50;82.00
33994;DHT22;20673;48.980;8.138;2022-08-03T14:38:36;38.50;80.90
33994;DHT22;20673;48.980;8.138;2022-08-03T14:41:02;38.20;81.40
33994;DHT22;20673;48.980;8.138;2022-08-03T14:43:29;38.20;81.20
33994;DHT22;20673;48.980;8.138;2022-08-03T14:45:55;38.10;80.20
33994;DHT22;20673;48.980;8.138;2022-08-03T14:48:22;37.70;80.50
33994;DHT22;20673;48.980;8.138;2022-08-03T14:50:50;37.60;81.10
33994;DHT22;20673;48.980;8.138;2022-08-03T14:53:17;37.70;80.60
33994;DHT22;20673;48.980;8.138;2022-08-03T14:55:44;37.70;81.20
33994;DHT22;20673;48.980;8.138;2022-08-03T14:58:14;37.60;80.90
33994;DHT22;20673;48.980;8.138;2022-08-03T15:00:41;37.50;81.30
33994;DHT22;20673;48.980;8.138;2022-08-03T15:03:07;37.70;82.80
33994;DHT22;20673;48.980;8.138;2022-08-03T15:05:33;37.90;84.10
33994;DHT22;20673;48.980;8.138;2022-08-03T15:07:59;38.10;80.60
33994;DHT22;20673;48.980;8.138;2022-08-03T15:10:26;38.50;83.90
33994;DHT22;20673;48.980;8.138;2022-08-03T15:12:52;38.80;80.40
33994;DHT22;20673;48.980;8.138;2022-08-03T15:15:20;38.70;81.80
33994;DHT22;20673;48.980;8.138;2022-08-03T15:17:46;38.70;80.70
33994;DHT22;20673;48.980;8.138;2022-08-03T15:20:12;38.90;79.30
33994;DHT22;20673;48.980;8.138;2022-08-03T15:22:39;38.90;79.40
33994;DHT22;20673;48.980;8.138;2022-08-03T15:25:06;38.90;78.30
33994;DHT22;20673;48.980;8.138;2022-08-03T15:27:33;38.90;78.10
33994;DHT22;20673;48.980;8.138;2022-08-03T15:29:59;38.60;76.50
33994;DHT22;20673;48.980;8.138;2022-08-03T15:32:25;38.60;75.90
33994;DHT22;20673;48.980;8.138;2022-08-03T15:34:51;38.50;76.00
33994;DHT22;20673;48.980;8.138;2022-08-03T15:37:18;38.60;75.50
33994;DHT22;20673;48.980;8.138;2022-08-03T15:39:45;38.50;77.60
33994;DHT22;20673;48.980;8.138;2022-08-03T15:42:11;38.40;76.50
33994;DHT22;20673;48.980;8.138;2022-08-03T15:44:37;38.30;76.20
33994;DHT22;20673;48.980;8.138;2022-08-03T15:47:04;38.40;77.00
33994;DHT22;20673;48.980;8.138;2022-08-03T15:49:30;38.80;77.20
33994;DHT22;20673;48.980;8.138;2022-08-03T15:51:57;38.90;76.10
33994;DHT22;20673;48.980;8.138;2022-08-03T15:54:23;38.70;76.50
33994;DHT22;20673;48.980;8.138;2022-08-03T15:56:49;38.70;75.90
33994;DHT22;20673;48.980;8.138;2022-08-03T15:59:16;38.80;76.60
33994;DHT22;20673;48.980;8.138;2022-08-03T16:01:45;38.90;76.70
33994;DHT22;20673;48.980;8.138;2022-08-03T16:04:13;39.00;76.40
33994;DHT22;20673;48.980;8.138;2022-08-03T16:06:39;39.20;74.60
33994;DHT22;20673;48.980;8.138;2022-08-03T16:09:06;39.30;76.20
33994;DHT22;20673;48.980;8.138;2022-08-03T16:11:34;39.60;76.40
33994;DHT22;20673;48.980;8.138;2022-08-03T16:14:01;39.40;74.20
33994;DHT22;20673;48.980;8.138;2022-08-03T16:16:27;39.40;74.10
33994;DHT22;20673;48.980;8.138;2022-08-03T16:18:53;39.20;74.40
33994;DHT22;20673;48.980;8.138;2022-08-03T16:21:19;39.20;74.70
33994;DHT22;20673;48.980;8.138;2022-08-03T16:23:46;39.20;75.40
33994;DHT22;20673;48.980;8.138;2022-08-03T16:26:13;39.10;74.70
33994;DHT22;20673;48.980;8.138;2022-08-03T16:28:39;39.00;73.70
33994;DHT22;20673;48.980;8.138;2022-08-03T16:31:05;38.90;75.20
33994;DHT22;20673;48.980;8.138;2022-08-03T16:33:36;38.90;73.90
33994;DHT22;20673;48.980;8.138;2022-08-03T16:36:05;38.70;73.70
33994;DHT22;20673;48.980;8.138;2022-08-03T16:38:31;38.50;73.80
33994;DHT22;20673;48.980;8.138;2022-08-03T16:40:57;38.40;73.90